Coventry, United Kingdom

1:46 AM GMT on February 12, 2016 (GMT +0000)
Coventry | | Change Station
CLOSE
Current Station
Airport
Location: Coventry,
Elevation: 269 ft
Nearby Weather Stations

Elev 269 ft 52.37 °N, 1.48 °W | Updated 26 minutes ago

Partly Cloudy
Partly Cloudy
36 °F
Feels Like 32 °F
N
5
Wind Variable Wind from SSE

Today
High -- | Low -- °F
--% Chance of Precip.
Yesterday
High -- | Low -- °F
Precip. -- in
Pressure 29.44 in
Visibility 6.2 miles
Clouds Few 4900 ft
Windchill 32 °F
Dew Point 34 °F
Humidity 93%
Rainfall 0.00 in
Snow Depth Not available.
7:28 AM 5:12 PM
Waxing Crescent, 16% visible
METAR EGBE 120120Z 15004KT 9999 FEW049 02/01 Q0997
Pressure 29.44 in
Visibility 6.2 miles
Clouds Few 4900 ft
Windchill 32 °F
Dew Point 34 °F
Humidity 93%
Rainfall 0.00 in
Snow Depth Not available.
7:28 AM 5:12 PM
Waxing Crescent, 16% visible
METAR EGBE 120120Z 15004KT 9999 FEW049 02/01 Q0997

10-Day Weather Forecast

Almanac

Astronomy

Feb. 12, 2016 Rise Set
Actual Time
Civil Twilight
Nautical Twilight
Astronomical Twilight
Moon
Length of Visible Light
Length of Day
Tomorrow will be .
, % of the Moon is Illuminated

Today's Extremes

Country Highs Country Lows

Community

WunderPhotos

Upload Photos

1,892,207 photos uploaded!

WunderBlog® & News

Nearby

Air Quality

  Air Quality AQ Index Pollutant
Not available.

Snow Depth

Station Depth Elevation

Earthquake Activity

City Distance Mag. Time & Date
Minimum magnitude displayed is 2.5.

Coastal Water Temperatures

Place Temperature

Stations

Nearby Weather Stations

Station Location Temp. Windchill Dew Point Humidity Wind Precip. Elev Updated Type